createdAt,value
2022-11-29T00:02:20.422Z,31.80
2022-11-29T00:06:30.952Z,30.57
2022-11-29T00:10:39.048Z,27.90
2022-11-29T00:14:47.475Z,32.87
2022-11-29T00:18:52.530Z,34.27
2022-11-29T00:22:57.710Z,31.93
2022-11-29T00:27:03.033Z,30.47
2022-11-29T00:31:22.083Z,36.87
2022-11-29T00:35:26.952Z,31.50
2022-11-29T00:39:31.826Z,32.03
2022-11-29T00:43:36.859Z,32.50
2022-11-29T00:47:41.742Z,31.80
2022-11-29T00:51:46.975Z,39.10
2022-11-29T00:55:53.199Z,35.57
2022-11-29T00:59:58.138Z,36.07
2022-11-29T01:04:03.451Z,37.10
2022-11-29T01:08:08.784Z,35.33
2022-11-29T01:12:13.730Z,34.97
2022-11-29T01:16:18.798Z,35.30
2022-11-29T01:20:23.976Z,35.13
2022-11-29T01:24:30.871Z,36.83
2022-11-29T01:28:37.687Z,35.53
2022-11-29T01:32:42.550Z,36.73
2022-11-29T01:36:47.474Z,34.00
2022-11-29T01:41:06.882Z,36.07
2022-11-29T01:45:23.994Z,41.07
2022-11-29T01:49:42.980Z,42.50
2022-11-29T01:53:47.915Z,40.63
2022-11-29T01:57:53.052Z,44.80
2022-11-29T02:02:06.430Z,39.40
2022-11-29T02:06:11.451Z,43.43
2022-11-29T02:10:17.087Z,40.50
2022-11-29T02:14:40.233Z,37.20
2022-11-29T02:18:57.347Z,38.07
2022-11-29T02:23:43.765Z,41.73
2022-11-29T02:28:16.067Z,41.23
2022-11-29T02:33:09.281Z,36.47
2022-11-29T02:37:45.624Z,35.57
2022-11-29T02:42:25.530Z,38.40
2022-11-29T02:46:50.322Z,38.30
2022-11-29T02:51:00.813Z,37.47
2022-11-29T02:55:09.886Z,40.77
2022-11-29T02:59:45.056Z,41.13
2022-11-29T03:04:29.030Z,39.43
2022-11-29T03:09:26.253Z,36.50
2022-11-29T03:14:01.761Z,40.17
2022-11-29T03:18:56.032Z,41.77
2022-11-29T03:23:20.091Z,42.93
2022-11-29T03:27:40.510Z,33.63
2022-11-29T03:32:20.867Z,38.47
2022-11-29T03:36:39.934Z,41.07
2022-11-29T03:41:10.331Z,37.73
2022-11-29T03:45:25.973Z,35.37
2022-11-29T03:49:59.363Z,37.30
2022-11-29T03:54:35.174Z,45.77
2022-11-29T03:59:02.957Z,37.60
2022-11-29T04:03:45.534Z,40.73
2022-11-29T04:08:01.037Z,36.73
2022-11-29T04:12:39.014Z,39.93
2022-11-29T04:17:18.100Z,40.60
2022-11-29T04:21:33.911Z,45.00
2022-11-29T04:26:21.917Z,43.43
2022-11-29T04:30:46.695Z,40.57
2022-11-29T04:35:00.311Z,40.47
2022-11-29T04:39:42.686Z,42.43
2022-11-29T04:44:23.888Z,39.07
2022-11-29T04:48:56.158Z,49.57
2022-11-29T04:53:25.320Z,41.30
2022-11-29T04:57:51.863Z,43.83
2022-11-29T05:02:20.162Z,46.10
2022-11-29T05:06:37.394Z,41.60
2022-11-29T05:10:53.048Z,44.80
2022-11-29T05:15:22.501Z,42.77
2022-11-29T05:19:57.211Z,41.57
2022-11-29T05:24:17.004Z,41.73
2022-11-29T05:28:48.214Z,42.50
2022-11-29T05:33:29.257Z,42.77
2022-11-29T05:37:48.983Z,44.00
2022-11-29T05:42:31.030Z,42.67
2022-11-29T05:46:55.867Z,37.50
2022-11-29T05:51:31.085Z,44.83
2022-11-29T05:56:30.028Z,44.30
2022-11-29T06:00:50.082Z,44.93
2022-11-29T06:05:09.201Z,40.53
2022-11-29T06:09:33.965Z,40.63
2022-11-29T06:14:13.988Z,40.97
2022-11-29T06:19:05.292Z,48.00
2022-11-29T06:23:37.795Z,44.73
2022-11-29T06:28:17.795Z,49.90
2022-11-29T06:32:56.792Z,47.27
2022-11-29T06:37:14.543Z,39.83
2022-11-29T06:41:23.349Z,46.27
2022-11-29T06:45:28.805Z,50.77
2022-11-29T06:49:48.775Z,46.90
2022-11-29T06:54:20.761Z,44.27
2022-11-29T06:58:46.193Z,49.03
2022-11-29T07:03:12.337Z,48.73
2022-11-29T07:07:23.281Z,50.20
2022-11-29T07:11:28.897Z,47.13
2022-11-29T07:15:35.071Z,40.10
2022-11-29T07:20:29.377Z,43.63
2022-11-29T07:25:09.268Z,49.23
2022-11-29T07:29:51.152Z,42.93
2022-11-29T07:34:14.617Z,43.70
2022-11-29T07:38:49.487Z,47.30
2022-11-29T07:43:31.132Z,49.70
2022-11-29T07:47:36.347Z,46.63
2022-11-29T07:51:41.374Z,45.00
2022-11-29T07:55:47.513Z,43.60
2022-11-29T07:59:52.334Z,45.57
2022-11-29T08:03:57.325Z,48.07
2022-11-29T08:08:02.386Z,47.10
2022-11-29T08:12:07.525Z,44.83
2022-11-29T08:16:17.929Z,48.90
2022-11-29T08:20:23.177Z,47.03
2022-11-29T08:24:28.128Z,45.37
2022-11-29T08:28:33.089Z,45.80
2022-11-29T08:32:37.990Z,51.00
2022-11-29T08:36:42.903Z,49.50
2022-11-29T08:40:47.764Z,46.03
2022-11-29T08:44:52.689Z,52.00
2022-11-29T08:48:57.573Z,53.77
2022-11-29T08:53:20.810Z,57.50
2022-11-29T08:57:39.714Z,47.47
2022-11-29T09:01:45.784Z,52.23
2022-11-29T09:05:51.285Z,45.40
2022-11-29T09:09:56.181Z,54.17
2022-11-29T09:14:05.417Z,52.13
2022-11-29T09:18:10.719Z,54.53
2022-11-29T09:22:15.576Z,61.70
2022-11-29T09:26:20.544Z,54.37
2022-11-29T09:30:25.531Z,53.63
2022-11-29T09:34:30.526Z,50.03
2022-11-29T09:38:36.653Z,51.00
2022-11-29T09:43:09.050Z,53.90
2022-11-29T09:47:35.438Z,53.53
2022-11-29T09:51:52.332Z,48.90
2022-11-29T09:56:05.410Z,54.57
2022-11-29T10:00:19.825Z,49.47
2022-11-29T10:04:31.497Z,51.93
2022-11-29T10:09:12.495Z,56.23
2022-11-29T10:13:39.319Z,47.73
2022-11-29T10:18:01.658Z,50.40
2022-11-29T10:23:00.430Z,57.83
2022-11-29T10:27:23.679Z,53.03
2022-11-29T10:31:35.154Z,52.50
2022-11-29T10:35:40.048Z,52.40
2022-11-29T10:40:04.592Z,50.07
2022-11-29T10:44:13.805Z,53.53
2022-11-29T10:48:22.707Z,55.53
2022-11-29T10:52:27.690Z,43.93
2022-11-29T10:56:37.640Z,53.93
2022-11-29T11:01:07.825Z,50.43
2022-11-29T11:05:19.410Z,53.63
2022-11-29T11:09:44.040Z,48.20
2022-11-29T11:14:06.080Z,48.27
2022-11-29T11:18:21.461Z,52.50
2022-11-29T11:22:28.625Z,50.80
2022-11-29T11:26:45.296Z,47.43
2022-11-29T11:30:58.184Z,50.40
2022-11-29T11:35:03.311Z,51.60
2022-11-29T11:39:17.690Z,54.03
2022-11-29T11:43:23.225Z,50.60
2022-11-29T11:47:31.628Z,49.33
2022-11-29T11:51:36.769Z,58.30
2022-11-29T11:55:53.243Z,47.73
2022-11-29T12:00:06.428Z,50.07
2022-11-29T12:04:21.374Z,56.47
2022-11-29T12:08:28.625Z,49.90
2022-11-29T12:12:39.298Z,47.73
2022-11-29T12:16:45.510Z,50.87
2022-11-29T12:20:50.314Z,53.87
2022-11-29T12:25:04.532Z,52.07
2022-11-29T12:29:19.068Z,52.80
2022-11-29T12:33:42.147Z,54.50
2022-11-29T12:37:56.274Z,56.50
2022-11-29T12:42:18.316Z,50.93
2022-11-29T12:46:28.851Z,54.40
2022-11-29T12:50:49.157Z,52.87
2022-11-29T12:55:26.467Z,60.47
2022-11-29T13:00:15.280Z,59.87
2022-11-29T13:05:04.054Z,50.57
2022-11-29T13:09:35.620Z,49.40
2022-11-29T13:13:45.471Z,53.07
2022-11-29T13:18:05.247Z,51.13
2022-11-29T13:22:12.824Z,51.17
2022-11-29T13:26:18.736Z,54.40
2022-11-29T13:30:23.827Z,50.13
2022-11-29T13:34:42.891Z,51.73
2022-11-29T13:39:37.693Z,57.23
2022-11-29T13:44:46.318Z,56.20
2022-11-29T13:48:54.041Z,56.60
2022-11-29T13:53:23.761Z,55.93
2022-11-29T13:57:28.832Z,51.97
2022-11-29T14:01:49.360Z,50.20
2022-11-29T14:06:18.558Z,64.23
2022-11-29T14:10:29.090Z,53.90
2022-11-29T14:14:58.903Z,53.07
2022-11-29T14:19:09.992Z,52.67
2022-11-29T14:23:31.053Z,52.43
2022-11-29T14:27:35.953Z,53.23
2022-11-29T14:31:52.169Z,55.43
2022-11-29T14:36:18.398Z,48.37
2022-11-29T14:40:40.645Z,48.77
2022-11-29T14:45:04.658Z,51.80
2022-11-29T14:49:23.911Z,60.37
2022-11-29T14:53:34.316Z,53.70
2022-11-29T14:57:48.373Z,63.53
2022-11-29T15:01:53.860Z,55.40
2022-11-29T15:06:11.768Z,57.30
2022-11-29T15:10:23.153Z,55.63
2022-11-29T15:15:11.685Z,57.60
2022-11-29T15:19:58.455Z,52.37
2022-11-29T15:24:15.048Z,58.67
2022-11-29T15:28:29.101Z,55.50
2022-11-29T15:32:34.228Z,56.07
2022-11-29T15:36:43.510Z,55.03
2022-11-29T15:40:54.708Z,54.47
2022-11-29T15:44:59.568Z,56.40
2022-11-29T15:49:27.714Z,54.63
2022-11-29T15:53:49.663Z,52.77
2022-11-29T15:57:56.884Z,58.90
2022-11-29T16:02:20.791Z,53.93
2022-11-29T16:06:45.821Z,49.57
2022-11-29T16:10:53.150Z,65.47
2022-11-29T16:15:01.037Z,53.07
2022-11-29T16:19:34.328Z,55.47
2022-11-29T16:23:43.818Z,53.60
2022-11-29T16:27:53.500Z,52.47
2022-11-29T16:31:58.692Z,66.80
2022-11-29T16:36:26.684Z,76.10
2022-11-29T16:40:35.410Z,56.27
2022-11-29T16:44:40.242Z,50.27
2022-11-29T16:48:45.156Z,61.72
2022-11-29T16:52:56.090Z,56.33
2022-11-29T16:57:06.617Z,50.07
2022-11-29T17:01:28.909Z,55.23
2022-11-29T17:05:33.761Z,54.87
2022-11-29T17:09:38.961Z,43.90
2022-11-29T17:13:44.267Z,51.33
2022-11-29T17:17:49.156Z,60.80
2022-11-29T17:21:54.104Z,53.27
2022-11-29T17:26:00.567Z,47.97
2022-11-29T17:30:07.132Z,53.17
2022-11-29T17:34:12.144Z,48.07
2022-11-29T17:38:17.030Z,52.63
2022-11-29T17:42:22.809Z,51.87
2022-11-29T17:46:37.537Z,47.67
2022-11-29T17:50:42.445Z,45.90
2022-11-29T17:54:47.423Z,49.00
2022-11-29T17:58:55.154Z,50.00
2022-11-29T18:03:00.004Z,56.70
2022-11-29T18:07:05.371Z,57.93
2022-11-29T18:11:29.857Z,47.90
2022-11-29T18:15:34.833Z,53.83
2022-11-29T18:19:39.724Z,50.70
2022-11-29T18:23:44.658Z,53.03
2022-11-29T18:27:49.707Z,49.67
2022-11-29T18:31:54.699Z,46.13
2022-11-29T18:36:10.024Z,49.00
2022-11-29T18:40:15.135Z,51.93
2022-11-29T18:44:29.210Z,52.73
2022-11-29T18:48:34.117Z,52.33
2022-11-29T18:52:40.801Z,52.93
2022-11-29T18:56:46.474Z,48.07
2022-11-29T19:00:51.391Z,48.53
2022-11-29T19:04:56.881Z,51.30
2022-11-29T19:09:02.507Z,49.30
2022-11-29T19:13:07.419Z,55.47
2022-11-29T19:17:12.283Z,47.93
2022-11-29T19:21:18.790Z,47.83
2022-11-29T19:25:23.673Z,52.13
2022-11-29T19:29:28.657Z,55.17
2022-11-29T19:33:35.805Z,51.03
2022-11-29T19:37:42.026Z,53.57
2022-11-29T19:41:48.031Z,53.27
2022-11-29T19:45:53.021Z,52.43
2022-11-29T19:50:02.301Z,52.87
2022-11-29T19:54:09.757Z,51.90
2022-11-29T19:58:14.650Z,51.07
2022-11-29T20:02:19.580Z,55.00
2022-11-29T20:06:28.502Z,53.43
2022-11-29T20:10:34.562Z,54.40
2022-11-29T20:14:39.531Z,56.53
2022-11-29T20:18:50.618Z,56.63
2022-11-29T20:22:55.879Z,54.57
2022-11-29T20:27:00.848Z,56.20
2022-11-29T20:31:12.937Z,54.43
2022-11-29T20:35:18.300Z,54.37
2022-11-29T20:39:41.007Z,52.60
2022-11-29T20:43:56.819Z,58.70
2022-11-29T20:48:25.870Z,56.40
2022-11-29T20:52:43.634Z,56.67
2022-11-29T20:56:48.520Z,63.43
2022-11-29T21:00:57.433Z,56.60
2022-11-29T21:05:02.382Z,58.67
2022-11-29T21:09:08.701Z,53.67
2022-11-29T21:13:14.801Z,61.03
2022-11-29T21:17:20.272Z,52.93
2022-11-29T21:21:45.156Z,52.17
2022-11-29T21:26:21.087Z,60.07
2022-11-29T21:30:26.223Z,58.93
2022-11-29T21:34:31.371Z,53.53
2022-11-29T21:38:36.470Z,61.07
2022-11-29T21:42:41.492Z,62.43
2022-11-29T21:46:46.360Z,60.70
2022-11-29T21:50:51.730Z,61.73
2022-11-29T21:54:56.653Z,61.47
2022-11-29T21:59:01.541Z,58.57
2022-11-29T22:03:06.711Z,61.60
2022-11-29T22:07:11.636Z,64.90
2022-11-29T22:11:30.782Z,60.10
2022-11-29T22:15:36.077Z,64.87
2022-11-29T22:19:41.107Z,64.03
2022-11-29T22:23:45.967Z,63.50
2022-11-29T22:27:50.910Z,67.37
2022-11-29T22:31:57.303Z,66.77
2022-11-29T22:36:08.901Z,64.53
2022-11-29T22:40:13.948Z,58.07
2022-11-29T22:44:18.855Z,63.13
2022-11-29T22:52:54.188Z,65.80
2022-11-29T22:56:59.110Z,71.40
2022-11-29T23:01:19.632Z,62.00
2022-11-29T23:05:27.250Z,75.20
2022-11-29T23:09:35.706Z,65.90
2022-11-29T23:13:42.607Z,62.90
2022-11-29T23:17:47.468Z,57.47
2022-11-29T23:21:52.418Z,63.57
2022-11-29T23:25:57.882Z,73.33
2022-11-29T23:30:02.913Z,64.60
2022-11-29T23:34:07.989Z,64.90
2022-11-29T23:38:12.898Z,60.90
2022-11-29T23:42:17.814Z,58.20
2022-11-29T23:46:24.372Z,63.13
2022-11-29T23:50:29.224Z,64.73
2022-11-29T23:54:34.190Z,70.50
2022-11-29T23:58:39.576Z,70.27
